sensor_id;sensor_type;location;lat;lon;timestamp;pressure;altitude;pressure_sealevel;temperature;humidity
11347;BME280;5728;42.722;23.258;2022-08-11T00:01:44;94907.19;;;18.36;93.95
11347;BME280;5728;42.722;23.258;2022-08-11T00:04:13;94906.41;;;18.34;94.47
11347;BME280;5728;42.722;23.258;2022-08-11T00:06:41;94909.78;;;18.37;94.17
11347;BME280;5728;42.722;23.258;2022-08-11T00:09:11;94907.00;;;18.40;94.08
11347;BME280;5728;42.722;23.258;2022-08-11T00:11:43;94907.94;;;18.39;94.38
11347;BME280;5728;42.722;23.258;2022-08-11T00:14:17;94894.69;;;18.63;93.66
11347;BME280;5728;42.722;23.258;2022-08-11T00:16:53;94894.53;;;18.66;92.47
11347;BME280;5728;42.722;23.258;2022-08-11T00:19:22;94909.84;;;18.56;93.48
11347;BME280;5728;42.722;23.258;2022-08-11T00:21:50;94910.81;;;18.54;93.52
11347;BME280;5728;42.722;23.258;2022-08-11T00:24:18;94909.84;;;18.56;93.61
11347;BME280;5728;42.722;23.258;2022-08-11T00:26:47;94902.09;;;18.53;93.89
11347;BME280;5728;42.722;23.258;2022-08-11T00:29:16;94902.88;;;18.35;93.94
11347;BME280;5728;42.722;23.258;2022-08-11T00:31:46;94904.19;;;18.25;95.24
11347;BME280;5728;42.722;23.258;2022-08-11T00:34:17;94900.06;;;18.60;93.63
11347;BME280;5728;42.722;23.258;2022-08-11T00:36:49;94888.09;;;18.73;92.99
11347;BME280;5728;42.722;23.258;2022-08-11T00:39:19;94885.81;;;18.65;93.08
11347;BME280;5728;42.722;23.258;2022-08-11T00:41:58;94876.25;;;18.83;92.25
11347;BME280;5728;42.722;23.258;2022-08-11T00:44:53;94889.47;;;19.00;91.06
11347;BME280;5728;42.722;23.258;2022-08-11T00:47:34;94886.47;;;19.07;90.85
11347;BME280;5728;42.722;23.258;2022-08-11T00:50:16;94891.31;;;18.98;90.58
11347;BME280;5728;42.722;23.258;2022-08-11T00:52:58;94893.06;;;19.16;89.97
11347;BME280;5728;42.722;23.258;2022-08-11T00:55:52;94895.00;;;18.94;90.63
11347;BME280;5728;42.722;23.258;2022-08-11T01:01:56;94891.31;;;18.98;90.83
11347;BME280;5728;42.722;23.258;2022-08-11T01:08:01;94893.59;;;19.05;90.38
11347;BME280;5728;42.722;23.258;2022-08-11T01:14:21;94879.41;;;18.52;93.87
11347;BME280;5728;42.722;23.258;2022-08-11T01:17:13;94889.00;;;18.72;92.76
11347;BME280;5728;42.722;23.258;2022-08-11T01:20:09;94880.81;;;18.98;91.71
11347;BME280;5728;42.722;23.258;2022-08-11T01:23:03;94913.63;;;19.08;90.92
11347;BME280;5728;42.722;23.258;2022-08-11T01:29:22;94874.94;;;19.29;89.12
11347;BME280;5728;42.722;23.258;2022-08-11T01:35:26;94876.31;;;19.19;89.49
11347;BME280;5728;42.722;23.258;2022-08-11T01:47:16;94874.78;;;18.57;93.97
11347;BME280;5728;42.722;23.258;2022-08-11T01:50:06;94870.88;;;18.47;93.57
11347;BME280;5728;42.722;23.258;2022-08-11T01:52:46;94878.28;;;18.17;95.40
11347;BME280;5728;42.722;23.258;2022-08-11T01:55:22;94882.34;;;18.04;96.23
11347;BME280;5728;42.722;23.258;2022-08-11T01:57:59;94867.63;;;18.00;96.42
11347;BME280;5728;42.722;23.258;2022-08-11T02:00:36;94868.03;;;17.91;96.96
11347;BME280;5728;42.722;23.258;2022-08-11T02:03:11;94879.31;;;18.33;94.69
11347;BME280;5728;42.722;23.258;2022-08-11T02:05:50;94866.47;;;18.27;94.88
11347;BME280;5728;42.722;23.258;2022-08-11T02:08:33;94872.09;;;18.18;95.49
11347;BME280;5728;42.722;23.258;2022-08-11T02:11:13;94872.38;;;18.32;94.19
11347;BME280;5728;42.722;23.258;2022-08-11T02:14:02;94862.22;;;18.43;94.32
11347;BME280;5728;42.722;23.258;2022-08-11T02:16:47;94875.47;;;18.40;94.43
11347;BME280;5728;42.722;23.258;2022-08-11T02:19:24;94881.59;;;18.61;93.82
11347;BME280;5728;42.722;23.258;2022-08-11T02:22:15;94879.16;;;18.95;92.35
11347;BME280;5728;42.722;23.258;2022-08-11T02:25:06;94875.63;;;19.15;91.01
11347;BME280;5728;42.722;23.258;2022-08-11T02:27:39;94875.03;;;19.27;90.02
11347;BME280;5728;42.722;23.258;2022-08-11T02:30:11;94867.63;;;19.35;89.42
11347;BME280;5728;42.722;23.258;2022-08-11T02:32:46;94874.47;;;19.39;88.38
11347;BME280;5728;42.722;23.258;2022-08-11T02:35:57;94880.38;;;19.44;88.44
11347;BME280;5728;42.722;23.258;2022-08-11T02:38:28;94877.38;;;19.52;87.97
11347;BME280;5728;42.722;23.258;2022-08-11T02:41:05;94875.88;;;19.46;87.76
11347;BME280;5728;42.722;23.258;2022-08-11T02:44:13;94862.66;;;19.29;88.07
11347;BME280;5728;42.722;23.258;2022-08-11T02:46:53;94872.63;;;19.41;87.81
11347;BME280;5728;42.722;23.258;2022-08-11T02:49:32;94867.72;;;19.15;89.27
11347;BME280;5728;42.722;23.258;2022-08-11T02:52:28;94873.47;;;18.67;89.96
11347;BME280;5728;42.722;23.258;2022-08-11T02:55:13;94871.31;;;18.36;92.10
11347;BME280;5728;42.722;23.258;2022-08-11T02:57:50;94871.94;;;18.62;91.93
11347;BME280;5728;42.722;23.258;2022-08-11T03:00:19;94866.13;;;18.74;90.78
11347;BME280;5728;42.722;23.258;2022-08-11T03:03:06;94869.63;;;18.74;90.63
11347;BME280;5728;42.722;23.258;2022-08-11T03:06:04;94866.69;;;18.62;90.43
11347;BME280;5728;42.722;23.258;2022-08-11T03:08:56;94874.31;;;18.68;89.73
11347;BME280;5728;42.722;23.258;2022-08-11T03:11:45;94869.53;;;18.57;90.14
11347;BME280;5728;42.722;23.258;2022-08-11T03:14:42;94879.66;;;18.85;89.13
11347;BME280;5728;42.722;23.258;2022-08-11T03:17:33;94877.44;;;18.94;88.03
11347;BME280;5728;42.722;23.258;2022-08-11T03:20:14;94877.41;;;18.37;90.39
11347;BME280;5728;42.722;23.258;2022-08-11T03:22:51;94874.13;;;18.32;91.41
11347;BME280;5728;42.722;23.258;2022-08-11T03:25:29;94874.19;;;18.51;89.23
11347;BME280;5728;42.722;23.258;2022-08-11T03:28:07;94873.25;;;18.72;90.05
11347;BME280;5728;42.722;23.258;2022-08-11T03:30:45;94865.41;;;18.52;90.83
11347;BME280;5728;42.722;23.258;2022-08-11T03:33:20;94870.88;;;18.45;91.50
11347;BME280;5728;42.722;23.258;2022-08-11T03:36:12;94877.94;;;18.65;90.66
11347;BME280;5728;42.722;23.258;2022-08-11T03:38:55;94879.22;;;18.75;90.08
11347;BME280;5728;42.722;23.258;2022-08-11T03:41:32;94881.56;;;18.63;90.09
11347;BME280;5728;42.722;23.258;2022-08-11T03:44:22;94876.50;;;18.77;89.88
11347;BME280;5728;42.722;23.258;2022-08-11T03:47:07;94875.34;;;18.64;91.36
11347;BME280;5728;42.722;23.258;2022-08-11T03:49:46;94875.94;;;18.70;89.72
11347;BME280;5728;42.722;23.258;2022-08-11T03:52:24;94875.78;;;18.73;90.87
11347;BME280;5728;42.722;23.258;2022-08-11T03:54:59;94874.81;;;18.76;89.92
11347;BME280;5728;42.722;23.258;2022-08-11T04:00:44;94879.72;;;19.02;88.01
11347;BME280;5728;42.722;23.258;2022-08-11T04:03:36;94878.09;;;19.18;87.92
11347;BME280;5728;42.722;23.258;2022-08-11T04:06:40;94875.03;;;19.08;87.91
11347;BME280;5728;42.722;23.258;2022-08-11T04:09:46;94873.94;;;19.31;87.00
11347;BME280;5728;42.722;23.258;2022-08-11T04:12:45;94877.88;;;19.41;85.63
11347;BME280;5728;42.722;23.258;2022-08-11T04:15:36;94887.03;;;19.51;86.95
11347;BME280;5728;42.722;23.258;2022-08-11T04:18:59;94873.56;;;19.93;85.20
11347;BME280;5728;42.722;23.258;2022-08-11T04:21:52;94883.63;;;20.19;83.28
11347;BME280;5728;42.722;23.258;2022-08-11T04:24:40;94881.09;;;20.01;83.69
11347;BME280;5728;42.722;23.258;2022-08-11T04:30:26;94884.41;;;20.04;82.55
11347;BME280;5728;42.722;23.258;2022-08-11T04:33:08;94888.72;;;20.24;81.85
11347;BME280;5728;42.722;23.258;2022-08-11T04:35:52;94894.00;;;20.24;81.36
11347;BME280;5728;42.722;23.258;2022-08-11T04:38:44;94896.75;;;20.21;81.12
11347;BME280;5728;42.722;23.258;2022-08-11T04:41:28;94910.22;;;20.32;80.31
11347;BME280;5728;42.722;23.258;2022-08-11T04:47:09;94903.25;;;20.48;80.27
11347;BME280;5728;42.722;23.258;2022-08-11T04:50:11;94900.53;;;20.50;79.33
11347;BME280;5728;42.722;23.258;2022-08-11T04:53:12;94889.84;;;20.53;79.46
11347;BME280;5728;42.722;23.258;2022-08-11T04:56:08;94891.41;;;20.57;79.97
11347;BME280;5728;42.722;23.258;2022-08-11T05:05:38;94897.00;;;21.16;77.26
11347;BME280;5728;42.722;23.258;2022-08-11T05:08:42;94899.53;;;21.18;77.48
11347;BME280;5728;42.722;23.258;2022-08-11T05:11:51;94903.66;;;21.54;76.25
11347;BME280;5728;42.722;23.258;2022-08-11T05:14:38;94901.09;;;21.84;75.04
11347;BME280;5728;42.722;23.258;2022-08-11T05:17:33;94901.09;;;21.84;75.21
11347;BME280;5728;42.722;23.258;2022-08-11T05:20:18;94910.41;;;22.21;73.58
11347;BME280;5728;42.722;23.258;2022-08-11T05:23:04;94910.50;;;22.19;73.65
11347;BME280;5728;42.722;23.258;2022-08-11T05:25:54;94905.97;;;22.21;73.90
11347;BME280;5728;42.722;23.258;2022-08-11T05:28:41;94905.50;;;22.59;72.02
11347;BME280;5728;42.722;23.258;2022-08-11T05:31:33;94904.34;;;22.78;71.63
11347;BME280;5728;42.722;23.258;2022-08-11T05:34:22;94893.84;;;22.91;70.16
11347;BME280;5728;42.722;23.258;2022-08-11T05:37:11;94900.88;;;22.78;70.83
11347;BME280;5728;42.722;23.258;2022-08-11T05:39:43;94905.28;;;22.18;73.16
11347;BME280;5728;42.722;23.258;2022-08-11T05:42:33;94898.66;;;22.41;72.88
11347;BME280;5728;42.722;23.258;2022-08-11T05:45:21;94899.53;;;22.41;72.83
11347;BME280;5728;42.722;23.258;2022-08-11T05:48:06;94893.03;;;22.61;73.06
11347;BME280;5728;42.722;23.258;2022-08-11T05:50:52;94893.25;;;22.28;73.82
11347;BME280;5728;42.722;23.258;2022-08-11T05:53:50;94900.94;;;22.47;73.98
11347;BME280;5728;42.722;23.258;2022-08-11T05:56:41;94891.13;;;22.35;74.11
11347;BME280;5728;42.722;23.258;2022-08-11T05:59:13;94900.28;;;22.43;73.82
11347;BME280;5728;42.722;23.258;2022-08-11T06:01:43;94912.25;;;21.74;76.64
11347;BME280;5728;42.722;23.258;2022-08-11T06:04:16;94899.31;;;21.85;76.91
11347;BME280;5728;42.722;23.258;2022-08-11T06:06:49;94900.94;;;21.56;78.62
11347;BME280;5728;42.722;23.258;2022-08-11T06:09:27;94897.69;;;21.67;77.91
11347;BME280;5728;42.722;23.258;2022-08-11T06:11:58;94895.38;;;21.76;78.46
11347;BME280;5728;42.722;23.258;2022-08-11T06:14:27;94895.13;;;21.81;78.37
11347;BME280;5728;42.722;23.258;2022-08-11T06:16:56;94891.56;;;22.71;76.26
11347;BME280;5728;42.722;23.258;2022-08-11T06:19:31;94885.91;;;22.91;74.71
11347;BME280;5728;42.722;23.258;2022-08-11T06:22:00;94894.47;;;22.52;76.07
11347;BME280;5728;42.722;23.258;2022-08-11T06:24:28;94888.28;;;23.24;74.46
11347;BME280;5728;42.722;23.258;2022-08-11T06:26:56;94886.25;;;23.70;72.37
11347;BME280;5728;42.722;23.258;2022-08-11T06:29:24;94883.69;;;24.09;70.80
11347;BME280;5728;42.722;23.258;2022-08-11T06:31:56;94886.09;;;23.59;72.25
11347;BME280;5728;42.722;23.258;2022-08-11T06:34:39;94877.00;;;23.89;70.75
11347;BME280;5728;42.722;23.258;2022-08-11T06:37:19;94876.31;;;24.00;70.40
11347;BME280;5728;42.722;23.258;2022-08-11T06:39:51;94890.00;;;23.80;70.25
11347;BME280;5728;42.722;23.258;2022-08-11T06:42:33;94876.09;;;24.03;70.51
11347;BME280;5728;42.722;23.258;2022-08-11T06:45:11;94889.50;;;24.53;69.06
11347;BME280;5728;42.722;23.258;2022-08-11T06:47:44;94884.44;;;23.70;70.38
11347;BME280;5728;42.722;23.258;2022-08-11T06:50:15;94881.13;;;23.67;71.69
11347;BME280;5728;42.722;23.258;2022-08-11T06:53:01;94895.59;;;24.16;69.85
11347;BME280;5728;42.722;23.258;2022-08-11T06:55:30;94893.31;;;24.37;67.87
11347;BME280;5728;42.722;23.258;2022-08-11T06:58:18;94893.50;;;23.80;69.76
11347;BME280;5728;42.722;23.258;2022-08-11T07:01:06;94893.81;;;23.62;70.69
11347;BME280;5728;42.722;23.258;2022-08-11T07:03:39;94896.44;;;23.76;69.13
11347;BME280;5728;42.722;23.258;2022-08-11T07:06:17;94893.13;;;23.45;70.92
11347;BME280;5728;42.722;23.258;2022-08-11T07:09:05;94892.16;;;23.46;69.02
11347;BME280;5728;42.722;23.258;2022-08-11T07:12:02;94897.38;;;23.48;68.83
11347;BME280;5728;42.722;23.258;2022-08-11T07:14:51;94898.28;;;23.19;70.38
11347;BME280;5728;42.722;23.258;2022-08-11T07:17:40;94904.44;;;23.33;69.56
11347;BME280;5728;42.722;23.258;2022-08-11T07:20:16;94901.03;;;23.60;68.61
11347;BME280;5728;42.722;23.258;2022-08-11T07:23:02;94898.19;;;23.63;68.37
11347;BME280;5728;42.722;23.258;2022-08-11T07:25:50;94905.00;;;24.20;66.87
11347;BME280;5728;42.722;23.258;2022-08-11T07:28:38;94900.97;;;24.54;66.40
11347;BME280;5728;42.722;23.258;2022-08-11T07:31:29;94905.00;;;24.20;66.08
11347;BME280;5728;42.722;23.258;2022-08-11T07:36:49;94898.28;;;25.06;62.74
11347;BME280;5728;42.722;23.258;2022-08-11T07:39:19;94889.75;;;25.51;62.41
11347;BME280;5728;42.722;23.258;2022-08-11T07:41:48;94892.78;;;26.30;60.24
11347;BME280;5728;42.722;23.258;2022-08-11T07:44:15;94888.50;;;26.86;58.17
11347;BME280;5728;42.722;23.258;2022-08-11T07:46:46;94884.66;;;26.90;56.06
11347;BME280;5728;42.722;23.258;2022-08-11T07:49:33;94888.47;;;26.17;56.82
11347;BME280;5728;42.722;23.258;2022-08-11T07:52:21;94886.34;;;26.09;57.38
11347;BME280;5728;42.722;23.258;2022-08-11T07:54:59;94891.97;;;25.45;59.19
11347;BME280;5728;42.722;23.258;2022-08-11T07:57:27;94883.25;;;26.39;56.76
11347;BME280;5728;42.722;23.258;2022-08-11T08:00:13;94885.19;;;26.37;58.01
11347;BME280;5728;42.722;23.258;2022-08-11T08:02:58;94884.03;;;26.52;56.12
11347;BME280;5728;42.722;23.258;2022-08-11T08:05:43;94875.53;;;25.52;58.90
11347;BME280;5728;42.722;23.258;2022-08-11T08:08:30;94874.19;;;25.70;59.58
11347;BME280;5728;42.722;23.258;2022-08-11T08:11:14;94881.31;;;26.41;58.13
11347;BME280;5728;42.722;23.258;2022-08-11T08:13:59;94874.75;;;26.69;57.47
11347;BME280;5728;42.722;23.258;2022-08-11T08:16:44;94886.88;;;26.38;56.60
11347;BME280;5728;42.722;23.258;2022-08-11T08:19:30;94872.69;;;26.61;57.86
11347;BME280;5728;42.722;23.258;2022-08-11T08:21:58;94871.59;;;26.98;55.65
11347;BME280;5728;42.722;23.258;2022-08-11T08:24:27;94870.88;;;27.07;55.20
11347;BME280;5728;42.722;23.258;2022-08-11T08:26:54;94870.97;;;26.95;56.28
11347;BME280;5728;42.722;23.258;2022-08-11T08:29:26;94867.75;;;27.47;53.40
11347;BME280;5728;42.722;23.258;2022-08-11T08:32:13;94867.00;;;26.54;56.55
11347;BME280;5728;42.722;23.258;2022-08-11T08:34:42;94871.59;;;26.29;55.69
11347;BME280;5728;42.722;23.258;2022-08-11T08:37:10;94872.31;;;26.20;55.32
11347;BME280;5728;42.722;23.258;2022-08-11T08:39:39;94867.50;;;26.25;56.77
11347;BME280;5728;42.722;23.258;2022-08-11T08:42:09;94867.06;;;26.42;55.21
11347;BME280;5728;42.722;23.258;2022-08-11T08:44:40;94859.88;;;26.66;54.91
11347;BME280;5728;42.722;23.258;2022-08-11T08:47:13;94860.94;;;27.09;54.56
11347;BME280;5728;42.722;23.258;2022-08-11T08:49:44;94865.47;;;26.74;55.88
11347;BME280;5728;42.722;23.258;2022-08-11T08:52:17;94865.16;;;25.73;58.29
11347;BME280;5728;42.722;23.258;2022-08-11T08:54:49;94858.44;;;25.80;58.68
11347;BME280;5728;42.722;23.258;2022-08-11T08:57:21;94861.56;;;26.67;55.57
11347;BME280;5728;42.722;23.258;2022-08-11T08:59:49;94857.59;;;26.73;54.67
11347;BME280;5728;42.722;23.258;2022-08-11T09:02:18;94856.97;;;26.58;55.87
11347;BME280;5728;42.722;23.258;2022-08-11T09:04:45;94848.00;;;27.05;52.22
11347;BME280;5728;42.722;23.258;2022-08-11T09:07:15;94849.31;;;26.99;53.12
11347;BME280;5728;42.722;23.258;2022-08-11T09:09:42;94851.25;;;27.75;50.09
11347;BME280;5728;42.722;23.258;2022-08-11T09:12:12;94860.59;;;27.36;50.82
11347;BME280;5728;42.722;23.258;2022-08-11T09:14:42;94843.28;;;27.42;50.74
11347;BME280;5728;42.722;23.258;2022-08-11T09:17:30;94839.72;;;27.85;49.70
11347;BME280;5728;42.722;23.258;2022-08-11T09:19:59;94832.88;;;27.61;50.19
11347;BME280;5728;42.722;23.258;2022-08-11T09:22:29;94842.66;;;26.94;52.87
11347;BME280;5728;42.722;23.258;2022-08-11T09:25:14;94833.84;;;27.04;52.26
11347;BME280;5728;42.722;23.258;2022-08-11T09:28:01;94842.19;;;26.54;53.52
11347;BME280;5728;42.722;23.258;2022-08-11T09:30:29;94843.19;;;27.43;53.11
11347;BME280;5728;42.722;23.258;2022-08-11T09:33:00;94845.34;;;27.49;48.94
11347;BME280;5728;42.722;23.258;2022-08-11T09:35:30;94847.69;;;28.39;50.66
11347;BME280;5728;42.722;23.258;2022-08-11T09:37:59;94834.13;;;29.14;49.28
11347;BME280;5728;42.722;23.258;2022-08-11T09:40:45;94839.84;;;28.47;48.99
11347;BME280;5728;42.722;23.258;2022-08-11T09:43:17;94833.94;;;28.12;50.92
11347;BME280;5728;42.722;23.258;2022-08-11T09:46:02;94837.91;;;27.86;48.37
11347;BME280;5728;42.722;23.258;2022-08-11T09:48:37;94820.72;;;27.79;48.77
11347;BME280;5728;42.722;23.258;2022-08-11T09:51:07;94827.72;;;28.23;49.08
11347;BME280;5728;42.722;23.258;2022-08-11T09:53:37;94821.50;;;28.33;48.59
11347;BME280;5728;42.722;23.258;2022-08-11T09:56:08;94823.84;;;29.30;46.75
11347;BME280;5728;42.722;23.258;2022-08-11T09:58:54;94819.81;;;28.01;48.44
11347;BME280;5728;42.722;23.258;2022-08-11T10:01:27;94822.84;;;27.96;48.66
11347;BME280;5728;42.722;23.258;2022-08-11T10:03:59;94809.03;;;28.55;46.24
11347;BME280;5728;42.722;23.258;2022-08-11T10:06:27;94814.94;;;27.95;47.42
11347;BME280;5728;42.722;23.258;2022-08-11T10:09:14;94813.47;;;28.44;46.37
11347;BME280;5728;42.722;23.258;2022-08-11T10:11:44;94815.06;;;28.57;46.21
11347;BME280;5728;42.722;23.258;2022-08-11T10:14:15;94818.53;;;28.89;44.40
11347;BME280;5728;42.722;23.258;2022-08-11T10:17:05;94805.13;;;29.00;44.56
11347;BME280;5728;42.722;23.258;2022-08-11T10:19:33;94805.00;;;28.81;42.53
11347;BME280;5728;42.722;23.258;2022-08-11T10:22:03;94809.66;;;28.26;45.41
11347;BME280;5728;42.722;23.258;2022-08-11T10:24:48;94806.72;;;29.42;41.59
11347;BME280;5728;42.722;23.258;2022-08-11T10:27:33;94809.19;;;29.74;41.96
11347;BME280;5728;42.722;23.258;2022-08-11T10:30:02;94806.16;;;29.88;41.12
11347;BME280;5728;42.722;23.258;2022-08-11T10:32:49;94807.44;;;30.32;39.85
11347;BME280;5728;42.722;23.258;2022-08-11T10:35:34;94808.34;;;29.24;40.97
11347;BME280;5728;42.722;23.258;2022-08-11T10:38:03;94811.31;;;29.31;42.75
11347;BME280;5728;42.722;23.258;2022-08-11T10:40:30;94811.34;;;29.10;41.59
11347;BME280;5728;42.722;23.258;2022-08-11T10:43:00;94803.72;;;29.76;41.95
11347;BME280;5728;42.722;23.258;2022-08-11T10:45:40;94803.66;;;29.56;42.92
11347;BME280;5728;42.722;23.258;2022-08-11T10:48:27;94798.16;;;30.55;41.20
11347;BME280;5728;42.722;23.258;2022-08-11T10:50:55;94801.22;;;30.89;39.71
11347;BME280;5728;42.722;23.258;2022-08-11T10:53:43;94795.63;;;30.06;40.25
11347;BME280;5728;42.722;23.258;2022-08-11T10:56:28;94782.34;;;30.90;39.85
11347;BME280;5728;42.722;23.258;2022-08-11T10:59:13;94777.78;;;31.01;38.99
11347;BME280;5728;42.722;23.258;2022-08-11T11:01:44;94783.72;;;30.94;39.35
11347;BME280;5728;42.722;23.258;2022-08-11T11:04:13;94778.78;;;31.36;39.62
11347;BME280;5728;42.722;23.258;2022-08-11T11:06:49;94782.66;;;31.15;39.70
11347;BME280;5728;42.722;23.258;2022-08-11T11:09:20;94770.38;;;31.22;38.41
11347;BME280;5728;42.722;23.258;2022-08-11T11:11:53;94778.31;;;31.14;38.84
11347;BME280;5728;42.722;23.258;2022-08-11T11:14:41;94767.00;;;31.20;39.40
11347;BME280;5728;42.722;23.258;2022-08-11T11:17:29;94768.88;;;30.35;39.53
11347;BME280;5728;42.722;23.258;2022-08-11T11:20:15;94753.13;;;31.34;37.92
11347;BME280;5728;42.722;23.258;2022-08-11T11:22:44;94757.25;;;30.72;38.47
11347;BME280;5728;42.722;23.258;2022-08-11T11:25:24;94761.50;;;29.69;40.50
11347;BME280;5728;42.722;23.258;2022-08-11T11:31:05;94755.69;;;30.99;38.83
11347;BME280;5728;42.722;23.258;2022-08-11T11:33:54;94764.91;;;30.58;39.65
11347;BME280;5728;42.722;23.258;2022-08-11T11:36:29;94754.75;;;31.44;38.37
11347;BME280;5728;42.722;23.258;2022-08-11T11:39:00;94751.75;;;32.55;36.11
11347;BME280;5728;42.722;23.258;2022-08-11T11:41:27;94755.28;;;30.84;38.19
11347;BME280;5728;42.722;23.258;2022-08-11T11:43:55;94753.63;;;30.64;39.36
11347;BME280;5728;42.722;23.258;2022-08-11T11:46:26;94761.38;;;30.57;38.34
11347;BME280;5728;42.722;23.258;2022-08-11T11:48:54;94749.09;;;30.64;39.02
11347;BME280;5728;42.722;23.258;2022-08-11T11:51:23;94745.88;;;30.70;39.14
11347;BME280;5728;42.722;23.258;2022-08-11T11:53:51;94757.53;;;31.97;36.69
11347;BME280;5728;42.722;23.258;2022-08-11T11:56:21;94750.41;;;32.59;35.75
11347;BME280;5728;42.722;23.258;2022-08-11T11:58:49;94750.22;;;32.17;35.39
11347;BME280;5728;42.722;23.258;2022-08-11T12:01:35;94750.06;;;31.56;36.80
11347;BME280;5728;42.722;23.258;2022-08-11T12:04:04;94755.19;;;32.47;35.11
11347;BME280;5728;42.722;23.258;2022-08-11T12:06:31;94748.97;;;31.39;36.49
11347;BME280;5728;42.722;23.258;2022-08-11T12:08:59;94751.13;;;31.36;36.34
11347;BME280;5728;42.722;23.258;2022-08-11T12:11:27;94750.56;;;31.87;35.10
11347;BME280;5728;42.722;23.258;2022-08-11T12:14:15;94748.41;;;32.43;33.82
11347;BME280;5728;42.722;23.258;2022-08-11T12:16:44;94735.09;;;31.26;35.43
11347;BME280;5728;42.722;23.258;2022-08-11T12:19:14;94729.59;;;31.55;35.06
11347;BME280;5728;42.722;23.258;2022-08-11T12:21:42;94725.69;;;31.40;36.04
11347;BME280;5728;42.722;23.258;2022-08-11T12:24:24;94725.13;;;30.91;35.33
11347;BME280;5728;42.722;23.258;2022-08-11T12:27:08;94713.50;;;31.55;35.48
11347;BME280;5728;42.722;23.258;2022-08-11T12:29:49;94726.19;;;31.98;37.04
11347;BME280;5728;42.722;23.258;2022-08-11T12:32:17;94733.34;;;32.25;37.22
11347;BME280;5728;42.722;23.258;2022-08-11T12:34:47;94734.22;;;31.80;37.84
11347;BME280;5728;42.722;23.258;2022-08-11T12:37:15;94735.13;;;31.17;39.61
11347;BME280;5728;42.722;23.258;2022-08-11T12:39:50;94737.97;;;30.59;39.37
11347;BME280;5728;42.722;23.258;2022-08-11T12:42:36;94739.31;;;29.98;40.68
11347;BME280;5728;42.722;23.258;2022-08-11T12:45:25;94739.16;;;30.38;40.35
11347;BME280;5728;42.722;23.258;2022-08-11T12:48:02;94740.44;;;29.95;41.79
11347;BME280;5728;42.722;23.258;2022-08-11T12:50:55;94741.69;;;29.23;44.56
11347;BME280;5728;42.722;23.258;2022-08-11T12:53:50;94741.81;;;28.91;45.08
11347;BME280;5728;42.722;23.258;2022-08-11T12:56:18;94741.03;;;29.30;43.68
11347;BME280;5728;42.722;23.258;2022-08-11T12:59:04;94740.41;;;30.24;41.09
11347;BME280;5728;42.722;23.258;2022-08-11T13:01:49;94737.47;;;31.02;38.51
11347;BME280;5728;42.722;23.258;2022-08-11T13:04:34;94731.16;;;30.93;39.88
11347;BME280;5728;42.722;23.258;2022-08-11T13:07:20;94735.19;;;30.32;42.02
11347;BME280;5728;42.722;23.258;2022-08-11T13:09:48;94735.59;;;29.60;43.17
11347;BME280;5728;42.722;23.258;2022-08-11T13:12:16;94737.97;;;29.63;43.62
11347;BME280;5728;42.722;23.258;2022-08-11T13:15:02;94737.47;;;30.17;42.31
11347;BME280;5728;42.722;23.258;2022-08-11T13:17:30;94741.13;;;30.45;42.26
11347;BME280;5728;42.722;23.258;2022-08-11T13:19:59;94729.69;;;30.53;42.19
11347;BME280;5728;42.722;23.258;2022-08-11T13:22:28;94735.50;;;30.19;42.02
11347;BME280;5728;42.722;23.258;2022-08-11T13:24:56;94736.94;;;30.79;40.14
11347;BME280;5728;42.722;23.258;2022-08-11T13:27:24;94724.25;;;30.35;39.94
11347;BME280;5728;42.722;23.258;2022-08-11T13:29:52;94718.28;;;31.34;38.58
11347;BME280;5728;42.722;23.258;2022-08-11T13:32:40;94715.59;;;31.34;37.87
11347;BME280;5728;42.722;23.258;2022-08-11T13:35:08;94728.78;;;30.90;38.58
11347;BME280;5728;42.722;23.258;2022-08-11T13:37:41;94717.66;;;31.40;37.51
11347;BME280;5728;42.722;23.258;2022-08-11T13:40:11;94703.09;;;31.87;36.15
11347;BME280;5728;42.722;23.258;2022-08-11T13:42:39;94711.03;;;31.44;35.90
11347;BME280;5728;42.722;23.258;2022-08-11T13:45:07;94702.41;;;31.68;35.24
11347;BME280;5728;42.722;23.258;2022-08-11T13:47:36;94716.09;;;31.47;36.27
11347;BME280;5728;42.722;23.258;2022-08-11T13:50:05;94718.97;;;31.81;35.31
11347;BME280;5728;42.722;23.258;2022-08-11T13:52:33;94714.00;;;32.39;33.87
11347;BME280;5728;42.722;23.258;2022-08-11T13:55:02;94712.22;;;32.73;33.90
11347;BME280;5728;42.722;23.258;2022-08-11T13:57:30;94700.78;;;32.02;34.63
11347;BME280;5728;42.722;23.258;2022-08-11T13:59:59;94705.28;;;32.01;33.90
11347;BME280;5728;42.722;23.258;2022-08-11T14:02:37;94699.06;;;31.66;34.13
11347;BME280;5728;42.722;23.258;2022-08-11T14:05:09;94692.75;;;31.75;34.63
11347;BME280;5728;42.722;23.258;2022-08-11T14:07:38;94686.25;;;31.95;33.84
11347;BME280;5728;42.722;23.258;2022-08-11T14:10:11;94686.41;;;32.29;34.01
11347;BME280;5728;42.722;23.258;2022-08-11T14:12:42;94697.31;;;32.09;33.55
11347;BME280;5728;42.722;23.258;2022-08-11T14:15:34;94700.06;;;32.17;34.36
11347;BME280;5728;42.722;23.258;2022-08-11T14:18:05;94708.47;;;32.23;33.93
11347;BME280;5728;42.722;23.258;2022-08-11T14:20:34;94701.56;;;31.67;35.51
11347;BME280;5728;42.722;23.258;2022-08-11T14:23:25;94699.72;;;32.56;34.66
11347;BME280;5728;42.722;23.258;2022-08-11T14:25:54;94702.28;;;32.48;34.49
11347;BME280;5728;42.722;23.258;2022-08-11T14:28:39;94697.00;;;32.12;35.21
11347;BME280;5728;42.722;23.258;2022-08-11T14:31:07;94704.88;;;32.75;33.95
11347;BME280;5728;42.722;23.258;2022-08-11T14:33:34;94699.34;;;32.76;34.33
11347;BME280;5728;42.722;23.258;2022-08-11T14:36:02;94698.13;;;32.71;34.38
11347;BME280;5728;42.722;23.258;2022-08-11T14:38:32;94692.50;;;33.16;34.30
11347;BME280;5728;42.722;23.258;2022-08-11T14:41:00;94696.19;;;32.12;36.03
11347;BME280;5728;42.722;23.258;2022-08-11T14:43:45;94694.19;;;32.57;34.92
11347;BME280;5728;42.722;23.258;2022-08-11T14:46:31;94687.66;;;32.16;36.50
11347;BME280;5728;42.722;23.258;2022-08-11T14:49:16;94693.56;;;32.46;35.24